Latest Weather Observations for St Kilda Harbour RMYS

IDV60801

Issued at 3:02 am EDT Thursday 19 January 2017 (issued every 30 minutes, with the page automatically refreshed every 10 minutes)

About weather observations | Map of weather stations | Latest weather observations for VIC | Other Formats
Station Details ID: 086220 Name: ST KILDA HARBOUR - RMYS Lat: -37.86 Lon: 144.96 Height: 6.4 m
Data from the previous 72 hours. | See also: Recent months for locations in Victoria
Date/Time
EDT
Temp
°C
App
Temp
°C
Dew
Point
°C
Rel
Hum
%
Delta-T
°C
Wind Press
QNH
hPa
Press
MSL
hPa
Rain since
9am
mm
Dir  Spd
km/h
Gust
km/h
Spd
kts
Gust
kts
19/03:00am - - - - - ESE 9 11 5 6 - - -
19/02:30am - - - - - E 11 17 6 9 - - -
19/02:00am - - - - - ESE 11 19 6 10 - - -
19/01:30am - - - - - ESE 11 17 6 9 - - -
19/01:00am - - - - - ESE 13 24 7 13 - - -
19/12:30am - - - - - SE 17 20 9 11 - - -
19/12:00am - - - - - SE 19 24 10 13 - - -
 
Date/Time
EDT
Temp
°C
App
Temp
°C
Dew
Point
°C
Rel
Hum
%
Delta-T
°C
Wind Press
QNH
hPa
Press
MSL
hPa
Rain since
9am
mm
Dir  Spd
km/h
Gust
km/h
Spd
kts
Gust
kts
18/11:30pm - - - - - SE 20 28 11 15 - - -
18/11:00pm - - - - - SE 19 26 10 14 - - -
18/10:30pm - - - - - SE 22 33 12 18 - - -
18/10:00pm - - - - - SE 24 32 13 17 - - -
18/09:30pm - - - - - SE 26 35 14 19 - - -
18/09:00pm - - - - - SE 24 30 13 16 - - -
18/08:30pm - - - - - SSE 30 37 16 20 - - -
18/08:00pm - - - - - SSE 30 39 16 21 - - -
18/07:30pm - - - - - S 30 39 16 21 - - -
18/07:00pm - - - - - S 35 44 19 24 - - -
18/06:30pm - - - - - S 35 43 19 23 - - -
18/06:00pm - - - - - S 39 46 21 25 - - -
18/05:30pm - - - - - S 39 46 21 25 - - -
18/05:00pm - - - - - S 41 46 22 25 - - -
18/04:30pm - - - - - S 39 46 21 25 - - -
18/04:00pm - - - - - S 35 43 19 23 - - -
18/03:30pm - - - - - S 41 48 22 26 - - -
18/03:00pm - - - - - S 41 48 22 26 - - -
18/02:30pm - - - - - S 37 44 20 24 - - -
18/02:00pm - - - - - SSW 37 43 20 23 - - -
18/01:30pm - - - - - S 33 41 18 22 - - -
18/01:00pm - - - - - SSW 35 43 19 23 - - -
18/12:30pm - - - - - S 37 48 20 26 - - -
18/12:00pm - - - - - SSW 41 46 22 25 - - -
18/11:30am - - - - - SSW 35 44 19 24 - - -
18/11:00am - - - - - SSW 30 37 16 20 - - -
18/10:30am - - - - - SSW 30 35 16 19 - - -
18/10:00am - - - - - SSW 37 44 20 24 - - -
18/09:30am - - - - - SSW 33 41 18 22 - - -
18/09:00am - - - - - SSW 35 43 19 23 - - -
18/08:30am - - - - - SSW 39 46 21 25 - - -
18/08:00am - - - - - SSW 39 46 21 25 - - -
18/07:30am - - - - - SSW 39 48 21 26 - - -
18/07:00am - - - - - SSW 37 48 20 26 - - -
18/06:30am - - - - - SSW 39 48 21 26 - - -
18/06:00am - - - - - SSW 43 46 23 25 - - -
18/05:30am - - - - - SSW 39 48 21 26 - - -
18/05:00am - - - - - SSW 39 46 21 25 - - -
18/04:30am - - - - - S 30 37 16 20 - - -
18/04:00am - - - - - S 20 24 11 13 - - -
18/03:30am - - - - - S 22 28 12 15 - - -
18/03:00am - - - - - S 17 22 9 12 - - -
18/02:30am - - - - - SW 20 26 11 14 - - -
18/02:00am - - - - - SW 24 30 13 16 - - -
18/01:30am - - - - - SW 13 15 7 8 - - -
18/01:00am - - - - - SW 2 7 1 4 - - -
18/12:30am - - - - - SSW 6 9 3 5 - - -
18/12:00am - - - - - SSW 11 15 6 8 - - -
 
Date/Time
EDT
Temp
°C
App
Temp
°C
Dew
Point
°C
Rel
Hum
%
Delta-T
°C
Wind Press
QNH
hPa
Press
MSL
hPa
Rain since
9am
mm
Dir  Spd
km/h
Gust
km/h
Spd
kts
Gust
kts
17/11:30pm - - - - - S 20 24 11 13 - - -
17/11:00pm - - - - - S 32 37 17 20 - - -
17/10:30pm - - - - - S 30 37 16 20 - - -
17/10:00pm - - - - - SSW 37 44 20 24 - - -
17/09:30pm - - - - - SSW 24 28 13 15 - - -
17/09:00pm - - - - - S 28 35 15 19 - - -
17/08:30pm - - - - - SSW 35 46 19 25 - - -
17/08:00pm - - - - - SW 32 37 17 20 - - -
17/07:30pm - - - - - S 26 33 14 18 - - -
17/07:00pm - - - - - S 28 33 15 18 - - -
17/06:30pm - - - - - S 28 32 15 17 - - -
17/06:00pm - - - - - S 24 30 13 16 - - -
17/05:30pm - - - - - S 33 39 18 21 - - -
17/05:00pm - - - - - S 30 41 16 22 - - -
17/04:55pm - - - - - SSE 24 41 13 22 - - -
17/04:30pm - - - - - S 15 17 8 9 - - -
17/04:00pm - - - - - SSE 13 17 7 9 - - -
17/03:30pm - - - - - SSE 17 19 9 10 - - -
17/03:00pm - - - - - SE 11 17 6 9 - - -
17/02:30pm - - - - - S 19 28 10 15 - - -
17/02:00pm - - - - - SSE 19 22 10 12 - - -
17/01:30pm - - - - - SSE 22 26 12 14 - - -
17/01:00pm - - - - - SSE 17 20 9 11 - - -
17/12:30pm - - - - - S 22 26 12 14 - - -
17/12:00pm - - - - - S 13 19 7 10 - - -
17/11:30am - - - - - SSW 15 24 8 13 - - -
17/11:00am - - - - - S 7 11 4 6 - - -
17/10:30am - - - - - SSW 9 13 5 7 - - -
17/10:00am - - - - - SE 2 7 1 4 - - -
17/09:30am - - - - - S 4 7 2 4 - - -
17/09:00am - - - - - SSW 13 20 7 11 - - -
17/08:30am - - - - - SSW 6 7 3 4 - - -
17/08:00am - - - - - CALM 0 2 0 1 - - -
17/07:30am - - - - - S 4 4 2 2 - - -
17/07:00am - - - - - SSW 7 9 4 5 - - -
17/06:30am - - - - - SSW 6 9 3 5 - - -
17/06:00am - - - - - WSW 11 15 6 8 - - -
17/05:30am - - - - - WNW 15 24 8 13 - - -
17/05:00am - - - - - N 20 35 11 19 - - -
17/04:30am - - - - - N 22 33 12 18 - - -
17/04:00am - - - - - N 17 28 9 15 - - -
17/03:30am - - - - - NNE 11 15 6 8 - - -
17/03:00am - - - - - NNE 9 13 5 7 - - -
17/02:30am - - - - - NNE 7 9 4 5 - - -
17/02:00am - - - - - NNE 7 9 4 5 - - -
17/01:30am - - - - - N 6 7 3 4 - - -
17/01:00am - - - - - NW 7 9 4 5 - - -
17/12:30am - - - - - NNW 4 6 2 3 - - -
17/12:00am - - - - - SW 4 7 2 4 - - -
 
Date/Time
EDT
Temp
°C
App
Temp
°C
Dew
Point
°C
Rel
Hum
%
Delta-T
°C
Wind Press
QNH
hPa
Press
MSL
hPa
Rain since
9am
mm
Dir  Spd
km/h
Gust
km/h
Spd
kts
Gust
kts
16/11:30pm - - - - - SSE 15 19 8 10 - - -
16/11:00pm - - - - - SSW 24 26 13 14 - - -
16/10:30pm - - - - - SSW 13 15 7 8 - - -
16/10:00pm - - - - - NE 6 7 3 4 - - -
16/09:30pm - - - - - E 6 13 3 7 - - -
16/09:00pm - - - - - ESE 13 17 7 9 - - -
16/08:30pm - - - - - SE 15 22 8 12 - - -
16/08:00pm - - - - - SSE 17 22 9 12 - - -
16/07:30pm - - - - - S 26 30 14 16 - - -
16/07:00pm - - - - - S 26 32 14 17 - - -
16/06:30pm - - - - - S 26 32 14 17 - - -
16/06:00pm - - - - - S 24 30 13 16 - - -
16/05:30pm - - - - - S 26 30 14 16 - - -
16/05:00pm - - - - - S 26 28 14 15 - - -
16/04:30pm - - - - - S 26 28 14 15 - - -
16/04:00pm - - - - - S 30 33 16 18 - - -
16/03:30pm - - - - - S 32 35 17 19 - - -
16/03:00pm - - - - - S 32 35 17 19 - - -
16/02:30pm - - - - - - - - - - - - -
16/02:00pm - - - - - S 30 35 16 19 - - -
16/01:30pm - - - - - SSE 28 33 15 18 - - -
16/01:00pm - - - - - S 30 35 16 19 - - -
16/12:30pm - - - - - S 11 19 6 10 - - -
16/12:00pm - - - - - S 7 9 4 5 - - -
16/11:30am - - - - - S 9 13 5 7 - - -
16/11:00am - - - - - SSW 7 13 4 7 - - -
16/10:30am - - - - - CALM 0 0 0 0 - - -
16/10:00am - - - - - NNE 7 13 4 7 - - -
16/09:30am - - - - - NE 6 9 3 5 - - -
16/09:00am - - - - - NE 7 13 4 7 - - -
16/08:30am - - - - - NE 7 15 4 8 - - -
16/08:00am - - - - - NNE 9 15 5 8 - - -
16/07:30am - - - - - NE 7 9 4 5 - - -
16/07:00am - - - - - NE 6 11 3 6 - - -
16/06:30am - - - - - NE 7 13 4 7 - - -
16/06:00am - - - - - ENE 6 11 3 6 - - -
16/05:30am - - - - - ENE 2 7 1 4 - - -
16/05:00am - - - - - ENE 2 7 1 4 - - -
16/04:30am - - - - - NE 4 9 2 5 - - -
16/04:00am - - - - - E 4 9 2 5 - - -
16/03:30am - - - - - ENE 4 9 2 5 - - -

Other Formats:

Comma delimited format used in spreadsheet applications
http://www.bom.gov.au/fwo/IDV60801/IDV60801.95864.axf

JavaScript Object Notation format (JSON) in row-major order
http://www.bom.gov.au/fwo/IDV60801/IDV60801.95864.json